Time;durP1;ratioP1;P1;durP2;ratioP2;P2;SDS_P1;SDS_P2;PMS_P1;PMS_P2;Temp;Humidity;BMP_temperature;BMP_pressure;BME280_temperature;BME280_humidity;BME280_pressure;Samples;Min_cycle;Max_cycle;Signal;HPM_P1;HPM_P2
2022/02/12 00:00:22;;;;;;;28.55;16.73;;;;;;;3.17;66.34;100799.84;5048310;28;20069;-21
2022/02/12 00:02:49;;;;;;;27.45;15.32;;;;;;;3.13;65.61;100795.88;5063520;28;20025;-21
2022/02/12 00:05:14;;;;;;;32.08;19.50;;;;;;;2.89;66.43;100801.75;5063433;28;20040;-21
2022/02/12 00:07:40;;;;;;;31.05;19.70;;;;;;;2.95;67.00;100795.88;5030377;28;20086;-22
2022/02/12 00:10:06;;;;;;;34.83;21.20;;;;;;;2.23;68.69;100797.59;5014055;28;20037;-21
2022/02/12 00:12:31;;;;;;;27.92;17.05;;;;;;;2.68;68.31;100803.84;5063322;28;20032;-21
2022/02/12 00:14:57;;;;;;;25.95;16.00;;;;;;;2.97;66.72;100799.19;5048303;28;20033;-22
2022/02/12 00:17:23;;;;;;;29.80;17.63;;;;;;;2.87;67.02;100797.59;5030569;28;20029;-21
2022/02/12 00:19:48;;;;;;;26.77;16.30;;;;;;;2.50;68.05;100802.00;5048339;28;20039;-21
2022/02/12 00:22:15;;;;;;;27.70;16.80;;;;;;;2.01;69.46;100781.22;5047876;28;20029;-21
2022/02/12 00:24:40;;;;;;;28.48;15.82;;;;;;;2.80;67.00;100792.94;5048175;28;20045;-21
2022/02/12 00:27:06;;;;;;;26.90;16.92;;;;;;;3.07;65.86;100780.66;5048062;28;20041;-20
2022/02/12 00:29:31;;;;;;;27.52;15.65;;;;;;;3.19;65.30;100797.88;5048186;28;20078;-21
2022/02/12 00:31:57;;;;;;;23.95;14.43;;;;;;;2.30;68.15;100790.75;5047792;28;20036;-21
2022/02/12 00:34:22;;;;;;;24.98;15.20;;;;;;;2.52;68.42;100793.97;5047973;28;20032;-20
2022/02/12 00:36:47;;;;;;;25.52;14.93;;;;;;;2.14;68.96;100791.38;5047481;28;20047;-21
2022/02/12 00:39:13;;;;;;;24.85;14.93;;;;;;;1.88;69.52;100791.25;5047951;28;20029;-22
2022/02/12 00:41:39;;;;;;;28.10;17.90;;;;;;;1.46;70.17;100802.16;5048404;28;20040;-20
2022/02/12 00:44:04;;;;;;;27.20;17.80;;;;;;;1.12;70.80;100789.47;5063157;28;20025;-21
2022/02/12 00:46:30;;;;;;;55.00;25.88;;;;;;;0.93;72.41;100761.41;5047523;28;20036;-21
2022/02/12 00:48:55;;;;;;;59.92;27.27;;;;;;;1.61;70.54;100763.09;5047611;28;20781;-21
2022/02/12 00:51:21;;;;;;;51.72;25.77;;;;;;;1.55;70.81;100797.84;5047328;28;20391;-21
2022/02/12 00:53:46;;;;;;;32.38;18.55;;;;;;;1.08;72.04;100792.50;5047595;28;20033;-21
2022/02/12 00:56:12;;;;;;;27.25;15.88;;;;;;;0.54;71.73;100785.03;5047764;28;20037;-21
2022/02/12 00:58:37;;;;;;;26.67;15.95;;;;;;;1.38;69.24;100788.88;5047073;28;20033;-21
2022/02/12 01:01:03;;;;;;;28.35;16.58;;;;;;;1.60;69.52;100793.00;5047618;28;20511;-21
2022/02/12 01:03:28;;;;;;;32.38;17.15;;;;;;;1.92;70.26;100784.72;5047557;28;20056;-21
2022/02/12 01:05:53;;;;;;;30.63;18.27;;;;;;;2.29;69.61;100788.25;5047420;28;20086;-21
2022/02/12 01:08:19;;;;;;;29.67;17.10;;;;;;;2.12;68.55;100776.72;5047899;28;20390;-22
2022/02/12 01:10:44;;;;;;;31.98;17.02;;;;;;;2.21;69.01;100799.56;5047397;28;20033;-21
2022/02/12 01:13:10;;;;;;;29.30;17.08;;;;;;;2.19;68.30;100785.72;5047827;28;20033;-20
2022/02/12 01:15:35;;;;;;;25.50;16.05;;;;;;;2.31;68.55;100792.44;5047321;28;20492;-21
2022/02/12 01:18:01;;;;;;;33.28;16.25;;;;;;;2.44;67.21;100786.81;5047459;28;20167;-21
2022/02/12 01:20:27;;;;;;;27.90;16.00;;;;;;;2.74;66.46;100798.00;5047166;28;20035;-20
2022/02/12 01:22:52;;;;;;;30.70;17.45;;;;;;;2.64;66.47;100795.41;5062901;28;20025;-21
2022/02/12 01:25:18;;;;;;;31.92;18.10;;;;;;;2.91;65.96;100791.06;5063013;28;20566;-21
2022/02/12 01:27:43;;;;;;;30.27;19.13;;;;;;;3.04;65.80;100799.41;5047379;28;20032;-21
2022/02/12 01:30:09;;;;;;;33.20;18.00;;;;;;;2.92;65.52;100795.34;5047478;28;20033;-21
2022/02/12 01:32:35;;;;;;;34.80;19.55;;;;;;;2.50;66.84;100788.03;5047029;28;20480;-20
2022/02/12 01:35:00;;;;;;;29.50;16.90;;;;;;;1.98;68.65;100764.88;5047176;28;20069;-20
2022/02/12 01:37:26;;;;;;;28.58;15.48;;;;;;;2.01;69.50;100791.72;5046089;28;20029;-22
2022/02/12 01:39:51;;;;;;;26.63;15.55;;;;;;;1.39;70.46;100764.28;5047437;28;20063;-21
2022/02/12 01:42:17;;;;;;;29.95;16.05;;;;;;;1.70;70.01;100798.25;5029663;28;20032;-21
2022/02/12 01:44:43;;;;;;;27.50;15.63;;;;;;;2.20;69.05;100803.16;5047067;28;20033;-22
2022/02/12 01:47:09;;;;;;;25.40;14.63;;;;;;;1.66;69.34;100796.88;5047387;28;20456;-21
2022/02/12 01:49:35;;;;;;;26.13;15.57;;;;;;;1.80;69.81;100814.81;5047291;28;20067;-21
2022/02/12 01:52:00;;;;;;;24.33;15.15;;;;;;;1.99;68.25;100808.66;5062198;28;20061;-21
2022/02/12 01:54:27;;;;;;;27.25;15.98;;;;;;;2.07;67.51;100806.13;5029187;28;20035;-20
2022/02/12 01:56:55;;;;;;;30.40;15.95;;;;;;;2.21;67.03;100815.34;5029517;28;20033;-21
2022/02/12 01:59:21;;;;;;;28.90;16.33;;;;;;;2.05;67.05;100787.00;5062038;28;20114;-21
2022/02/12 02:01:46;;;;;;;26.38;14.43;;;;;;;2.62;65.94;100821.06;5029269;28;20791;-21
2022/02/12 02:04:12;;;;;;;25.80;14.38;;;;;;;2.22;65.86;100803.81;5062316;28;20059;-21
2022/02/12 02:06:37;;;;;;;26.45;14.57;;;;;;;2.61;65.97;100830.75;5046662;28;20461;-21
2022/02/12 02:09:03;;;;;;;22.70;13.45;;;;;;;2.56;66.41;100827.75;5047982;28;20036;-21
2022/02/12 02:11:32;;;;;;;22.88;12.50;;;;;;;2.26;66.72;100838.59;5050595;28;20051;-21
2022/02/12 02:13:58;;;;;;;27.60;14.63;;;;;;;1.86;68.93;100843.16;5050542;28;20033;-20
2022/02/12 02:16:23;;;;;;;27.50;14.55;;;;;;;2.15;67.57;100829.91;5050159;28;20032;-20
2022/02/12 02:18:49;;;;;;;26.25;14.98;;;;;;;2.09;67.46;100837.56;5050041;28;20045;-21
2022/02/12 02:21:16;;;;;;;26.45;15.10;;;;;;;2.44;66.33;100850.00;5050296;28;20036;-20
2022/02/12 02:23:41;;;;;;;26.05;15.90;;;;;;;2.11;66.01;100835.59;5065621;28;20036;-21
2022/02/12 02:26:08;;;;;;;25.08;14.05;;;;;;;1.95;66.76;100860.72;5050376;28;20029;-21
2022/02/12 02:28:34;;;;;;;22.63;13.38;;;;;;;2.09;66.17;100861.22;5049988;28;20033;-21
2022/02/12 02:30:59;;;;;;;20.48;12.35;;;;;;;1.30;67.88;100857.91;5050191;28;20460;-21
2022/02/12 02:33:25;;;;;;;24.02;12.60;;;;;;;0.99;68.70;100868.53;5031853;28;20044;-21
2022/02/12 02:35:51;;;;;;;20.73;11.52;;;;;;;0.97;69.08;100869.66;5050329;28;20033;-21
2022/02/12 02:38:17;;;;;;;20.27;11.88;;;;;;;1.14;69.30;100874.22;5050077;28;20109;-21
2022/02/12 02:40:42;;;;;;;20.52;12.50;;;;;;;1.45;67.98;100857.47;5049924;28;20033;-21
2022/02/12 02:43:08;;;;;;;22.15;12.27;;;;;;;1.51;67.87;100865.66;5048560;28;20029;-21
2022/02/12 02:45:34;;;;;;;24.33;11.85;;;;;;;1.62;67.84;100877.00;5065652;28;20029;-21
2022/02/12 02:48:00;;;;;;;19.08;12.20;;;;;;;1.43;68.66;100880.44;5049755;28;20037;-20
2022/02/12 02:56:07;;;;;;;24.48;12.60;;;;;;;0.22;72.75;100878.84;5049779;28;20060;-22
2022/02/12 02:58:49;;;;;;;20.63;12.00;;;;;;;0.34;70.93;100877.78;5049303;28;20044;-21
2022/02/12 03:01:16;;;;;;;23.30;12.93;;;;;;;0.63;71.65;100908.56;5049796;28;20049;-21
2022/02/12 03:03:44;;;;;;;23.10;13.40;;;;;;;0.60;72.41;100904.41;5049207;28;20435;-20
2022/02/12 03:06:10;;;;;;;23.15;13.10;;;;;;;0.51;71.84;100884.19;5049676;28;20559;-21
2022/02/12 03:08:36;;;;;;;21.80;13.52;;;;;;;0.82;70.67;100881.50;5049181;28;20028;-21
2022/02/12 03:11:02;;;;;;;23.58;14.25;;;;;;;0.55;72.18;100888.22;5047997;28;20047;-21
2022/02/12 03:13:27;;;;;;;21.42;13.20;;;;;;;0.73;71.00;100901.53;5049458;28;20040;-21
2022/02/12 03:15:53;;;;;;;30.65;16.25;;;;;;;0.80;71.78;100895.63;5049498;28;20091;-21
2022/02/12 03:18:18;;;;;;;31.17;16.83;;;;;;;1.01;70.78;100892.06;5049489;28;20029;-21
2022/02/12 03:20:44;;;;;;;32.72;18.05;;;;;;;0.93;72.08;100910.28;5048935;28;20488;-21
2022/02/12 03:23:09;;;;;;;34.58;19.42;;;;;;;0.84;71.75;100914.56;5049357;28;20397;-21
2022/02/12 03:25:35;;;;;;;35.15;20.83;;;;;;;0.66;72.23;100903.88;5048847;28;20037;-20
2022/02/12 03:28:02;;;;;;;32.28;19.92;;;;;;;0.39;72.41;100907.94;5064606;28;20528;-21
2022/02/12 03:30:28;;;;;;;36.85;20.80;;;;;;;0.29;74.03;100943.78;5048941;28;20048;-20
2022/02/12 03:32:54;;;;;;;34.28;18.73;;;;;;;0.30;73.00;100924.44;5031177;28;20125;-21
2022/02/12 03:35:22;;;;;;;33.28;20.50;;;;;;;0.54;72.78;100946.94;5049045;28;20116;-21
2022/02/12 03:37:49;;;;;;;35.97;19.30;;;;;;;0.55;73.45;100940.72;5049032;28;20029;-21
2022/02/12 03:40:15;;;;;;;27.45;16.88;;;;;;;0.69;73.32;100935.09;5048840;28;20404;-21
2022/02/12 03:42:40;;;;;;;31.25;16.67;;;;;;;1.11;70.74;100934.09;5048793;28;20029;-20
2022/02/12 03:45:06;;;;;;;30.30;17.25;;;;;;;0.97;71.24;100916.94;5030976;28;20065;-21
2022/02/12 03:47:31;;;;;;;32.40;17.63;;;;;;;0.97;72.05;100935.31;5063711;28;20076;-22
2022/02/12 03:49:57;;;;;;;29.73;16.25;;;;;;;1.45;69.55;100941.59;5048656;28;20112;-20
2022/02/12 03:52:22;;;;;;;29.00;15.80;;;;;;;1.17;69.73;100934.38;5048521;28;20036;-22
2022/02/12 03:54:48;;;;;;;27.38;15.95;;;;;;;1.32;70.18;100958.47;5048229;28;20033;-21
2022/02/12 03:57:13;;;;;;;35.17;18.88;;;;;;;1.72;68.70;100948.81;5048487;28;20082;-21
2022/02/12 03:59:39;;;;;;;32.55;18.33;;;;;;;1.38;69.83;100941.31;5048415;28;20057;-21
2022/02/12 04:02:05;;;;;;;31.23;17.73;;;;;;;1.58;68.00;100942.97;5063928;28;20037;-21
2022/02/12 04:04:30;;;;;;;30.75;16.95;;;;;;;1.76;67.88;100960.72;5048043;28;20521;-21
2022/02/12 04:06:56;;;;;;;28.50;16.83;;;;;;;1.47;67.67;100943.13;5048429;28;20082;-21
2022/02/12 04:09:21;;;;;;;28.45;15.90;;;;;;;1.23;68.18;100953.19;5048082;28;20029;-22
2022/02/12 04:11:46;;;;;;;26.85;15.35;;;;;;;1.26;69.39;100953.75;5048584;28;20040;-21
2022/02/12 04:14:12;;;;;;;27.25;14.38;;;;;;;1.73;66.99;100958.34;5048091;28;20033;-21
2022/02/12 04:16:37;;;;;;;23.58;13.45;;;;;;;1.52;67.24;100959.31;5063384;28;20044;-21
2022/02/12 04:19:03;;;;;;;27.20;14.45;;;;;;;1.52;67.49;100947.97;5048039;28;20033;-20
2022/02/12 04:21:28;;;;;;;30.05;15.88;;;;;;;1.45;67.93;100958.22;5048262;28;20044;-21
2022/02/12 04:23:54;;;;;;;31.77;14.25;;;;;;;1.08;68.76;100958.84;5029998;28;20033;-21
2022/02/12 04:26:19;;;;;;;26.85;15.02;;;;;;;1.14;69.14;100974.06;5048496;28;20032;-21
2022/02/12 04:28:44;;;;;;;29.67;16.42;;;;;;;0.96;71.54;100979.16;5048032;28;20029;-21
2022/02/12 04:31:10;;;;;;;28.60;16.20;;;;;;;1.20;70.62;100976.13;5048303;28;20025;-21
2022/02/12 04:33:35;;;;;;;37.33;20.70;;;;;;;1.48;68.94;100978.97;5047565;28;20025;-21
2022/02/12 04:36:01;;;;;;;40.38;20.90;;;;;;;0.86;71.79;100983.53;5046975;28;20644;-21
2022/02/12 04:38:27;;;;;;;35.30;20.17;;;;;;;1.03;71.84;100981.25;5046884;28;20131;-20
2022/02/12 04:40:52;;;;;;;37.45;21.77;;;;;;;1.10;69.66;100938.50;5047718;28;20037;-22
2022/02/12 04:43:17;;;;;;;32.35;18.65;;;;;;;0.32;69.21;100964.50;5029673;28;20082;-21
2022/02/12 04:45:43;;;;;;;32.83;19.48;;;;;;;0.28;70.21;100989.34;5047801;28;20444;-21
2022/02/12 04:48:08;;;;;;;37.38;21.10;;;;;;;0.74;70.93;100980.16;5047769;28;20098;-20
2022/02/12 04:50:34;;;;;;;33.13;19.10;;;;;;;1.13;68.87;100982.91;5047647;28;20040;-21
2022/02/12 04:52:59;;;;;;;34.70;18.33;;;;;;;0.26;69.27;100975.50;5047180;28;20536;-21
2022/02/12 04:55:26;;;;;;;33.88;17.90;;;;;;;-0.26;70.33;100972.00;5047641;28;20094;-21
2022/02/12 04:57:51;;;;;;;31.42;15.70;;;;;;;-0.38;70.18;100973.84;5029759;28;20025;-20
2022/02/12 05:00:17;;;;;;;29.42;16.60;;;;;;;-0.17;70.52;100980.91;5047543;28;20634;-21
2022/02/12 05:02:45;;;;;;;31.75;17.52;;;;;;;-0.39;71.20;100987.06;5047175;28;20048;-21
2022/02/12 05:05:10;;;;;;;32.67;17.30;;;;;;;-0.43;72.25;100979.47;5047572;28;20036;-21
2022/02/12 05:07:36;;;;;;;34.33;17.67;;;;;;;0.55;69.09;100990.56;5047286;28;20033;-21
2022/02/12 05:10:01;;;;;;;33.05;17.85;;;;;;;0.49;69.31;100991.09;5047428;28;20037;-21
2022/02/12 05:12:26;;;;;;;40.33;21.52;;;;;;;0.68;69.69;100993.81;5047224;28;20496;-20
2022/02/12 05:14:52;;;;;;;56.17;33.67;;;;;;;0.77;69.87;100992.19;5047316;28;20029;-21
2022/02/12 05:17:18;;;;;;;56.28;34.08;;;;;;;1.39;68.55;101003.44;5047408;28;20033;-21
2022/02/12 05:19:44;;;;;;;43.65;23.52;;;;;;;0.92;69.96;100998.75;5047211;28;20051;-21
2022/02/12 05:22:09;;;;;;;37.75;21.38;;;;;;;1.32;68.45;101010.19;5047045;28;20029;-21
2022/02/12 05:24:34;;;;;;;38.45;22.27;;;;;;;1.04;68.32;100983.72;5047151;28;20029;-21
2022/02/12 05:27:00;;;;;;;37.30;21.23;;;;;;;1.32;67.51;100973.41;5047572;28;20032;-22
2022/02/12 05:29:25;;;;;;;44.00;23.23;;;;;;;1.34;68.05;101024.84;5047223;28;20025;-20
2022/02/12 05:31:51;;;;;;;44.50;23.85;;;;;;;1.42;67.33;101011.03;5029065;28;20044;-20
2022/02/12 05:34:17;;;;;;;65.75;32.50;;;;;;;1.28;68.89;101029.84;5047173;28;20102;-20
2022/02/12 05:36:42;;;;;;;92.60;43.05;;;;;;;1.42;68.46;101024.19;5046720;28;20041;-21
2022/02/12 05:39:09;;;;;;;86.28;42.42;;;;;;;1.40;68.50;101024.31;5047384;28;20021;-20
2022/02/12 05:41:35;;;;;;;127.93;60.35;;;;;;;1.18;69.14;101025.38;5047246;28;20040;-21
2022/02/12 05:44:00;;;;;;;146.30;64.93;;;;;;;1.35;68.59;101015.19;5048221;28;20029;-20
2022/02/12 05:46:26;;;;;;;200.68;93.28;;;;;;;1.51;68.71;101040.94;5050808;28;20472;-21
2022/02/12 05:48:51;;;;;;;187.38;91.18;;;;;;;1.90;67.04;101040.97;5050858;28;20044;-20
2022/02/12 05:51:18;;;;;;;167.95;79.85;;;;;;;1.94;66.85;101044.97;5050677;28;20412;-20
2022/02/12 05:53:44;;;;;;;217.20;102.13;;;;;;;1.86;67.21;101050.97;5050589;28;20392;-21
2022/02/12 05:56:10;;;;;;;138.93;72.63;;;;;;;2.12;66.85;101045.94;5050860;28;20120;-20
2022/02/12 05:58:36;;;;;;;157.82;76.80;;;;;;;1.83;67.55;101024.91;5065508;28;20037;-20
2022/02/12 06:01:01;;;;;;;105.93;59.58;;;;;;;1.87;68.28;101047.34;5050814;28;20500;-21
2022/02/12 06:03:27;;;;;;;94.00;49.53;;;;;;;1.99;68.99;101055.94;5065990;28;20044;-21
2022/02/12 06:05:52;;;;;;;80.80;44.78;;;;;;;1.42;70.49;101055.72;5065747;28;20488;-21
2022/02/12 06:08:18;;;;;;;119.70;69.20;;;;;;;0.84;73.95;101073.91;5050465;28;20040;-21
2022/02/12 06:10:43;;;;;;;97.72;56.22;;;;;;;0.62;75.47;101067.84;5065504;28;20056;-21
2022/02/12 06:13:09;;;;;;;95.63;54.45;;;;;;;1.22;73.43;101072.41;5050397;28;20815;-21
2022/02/12 06:15:36;;;;;;;86.65;49.55;;;;;;;1.33;72.61;101077.56;5032437;28;20162;-20
2022/02/12 06:18:03;;;;;;;87.78;47.70;;;;;;;1.16;72.39;101085.09;5050559;28;20104;-20
2022/02/12 06:20:28;;;;;;;75.78;44.13;;;;;;;1.20;72.97;101089.13;5032038;28;20029;-21
2022/02/12 06:22:54;;;;;;;93.63;51.88;;;;;;;1.74;71.17;101083.63;5032608;28;20487;-21
2022/02/12 06:25:19;;;;;;;95.60;55.33;;;;;;;1.11;72.98;101087.31;5050441;28;20028;-23
2022/02/12 06:27:46;;;;;;;53.75;27.10;;;;;;;0.54;73.60;101072.91;5050219;28;20090;-20
2022/02/12 06:30:11;;;;;;;44.70;24.60;;;;;;;0.94;72.22;101101.03;5032107;28;20032;-21
2022/02/12 06:32:37;;;;;;;38.55;20.95;;;;;;;1.10;72.21;101096.13;5049664;28;20032;-21
2022/02/12 06:35:02;;;;;;;36.58;21.38;;;;;;;1.15;71.73;101096.59;5049972;28;20029;-21
2022/02/12 06:37:28;;;;;;;116.40;46.97;;;;;;;1.33;71.10;101088.91;5050169;28;20037;-21
2022/02/12 06:39:55;;;;;;;123.57;51.63;;;;;;;1.78;70.30;101106.03;5065287;28;20036;-20
2022/02/12 06:42:20;;;;;;;51.92;28.98;;;;;;;1.88;68.92;101106.91;5031886;28;20033;-20
2022/02/12 06:44:46;;;;;;;55.95;31.63;;;;;;;1.85;70.63;101104.53;5015393;28;20480;-21
2022/02/12 06:47:11;;;;;;;58.10;34.50;;;;;;;2.24;70.22;101107.16;5049702;28;20041;-21
2022/02/12 06:49:37;;;;;;;63.70;38.22;;;;;;;2.16;70.77;101109.66;5064960;28;20484;-21
2022/02/12 06:52:03;;;;;;;66.25;38.92;;;;;;;2.03;71.70;101088.06;5049648;28;20162;-20
2022/02/12 06:54:28;;;;;;;61.10;37.08;;;;;;;2.09;72.91;101125.19;5049040;28;20041;-21
2022/02/12 06:56:54;;;;;;;64.18;37.85;;;;;;;2.17;72.52;101121.88;5049802;28;20039;-21
2022/02/12 06:59:19;;;;;;;68.88;39.53;;;;;;;2.03;73.11;101109.13;5049239;28;20087;-22
2022/02/12 07:01:45;;;;;;;62.42;36.25;;;;;;;2.04;73.81;101137.06;5031659;28;20036;-21
2022/02/12 07:04:10;;;;;;;60.20;35.50;;;;;;;2.12;74.04;101129.31;5049275;28;20062;-20
2022/02/12 07:06:36;;;;;;;56.60;31.85;;;;;;;2.36;73.97;101132.38;5049605;28;20025;-21
2022/02/12 07:09:04;;;;;;;59.60;36.58;;;;;;;2.51;73.35;101139.84;5049485;28;20025;-21
2022/02/12 07:11:30;;;;;;;54.75;33.67;;;;;;;2.54;72.81;101110.63;5049567;28;20029;-21
2022/02/12 07:13:56;;;;;;;58.78;36.53;;;;;;;2.95;72.66;101135.75;5031464;28;20052;-21
2022/02/12 07:16:21;;;;;;;59.08;37.17;;;;;;;3.16;72.57;101119.75;5049234;28;20557;-21
2022/02/12 07:18:48;;;;;;;56.50;34.33;;;;;;;3.61;71.83;101137.44;5030971;28;20033;-21
2022/02/12 07:21:13;;;;;;;55.38;34.22;;;;;;;3.39;73.14;101135.19;5049263;28;20064;-21
2022/02/12 07:23:40;;;;;;;47.78;30.75;;;;;;;3.55;72.40;101124.00;5049164;28;20029;-21
2022/02/12 07:26:06;;;;;;;50.60;28.77;;;;;;;3.60;72.73;101148.16;5049302;28;20036;-21
2022/02/12 07:28:32;;;;;;;52.78;26.85;;;;;;;3.53;73.33;101142.63;5063942;28;20037;-21
2022/02/12 07:30:58;;;;;;;43.58;25.77;;;;;;;3.33;72.97;101114.69;5048864;28;20037;-21
2022/02/12 07:33:26;;;;;;;44.28;27.73;;;;;;;3.86;72.63;101132.44;5048591;28;20550;-20
2022/02/12 07:35:54;;;;;;;48.55;29.48;;;;;;;4.21;70.81;101130.84;5049110;28;20035;-21
2022/02/12 07:38:19;;;;;;;55.00;30.30;;;;;;;4.12;71.77;101132.53;5048734;28;20040;-21
2022/02/12 07:40:45;;;;;;;40.00;24.13;;;;;;;4.32;70.11;101137.69;5048568;28;20036;-20
2022/02/12 07:43:10;;;;;;;44.50;26.42;;;;;;;4.61;70.69;101155.91;5048839;28;20025;-20
2022/02/12 07:45:36;;;;;;;44.30;27.02;;;;;;;4.66;69.97;101139.59;5048625;28;20028;-20
2022/02/12 07:48:01;;;;;;;40.78;25.70;;;;;;;4.74;70.43;101150.22;5048272;28;20045;-20
2022/02/12 07:50:26;;;;;;;49.95;28.42;;;;;;;5.14;68.16;101139.09;5048540;28;20496;-20
2022/02/12 07:52:52;;;;;;;47.58;31.00;;;;;;;5.74;68.41;101158.53;5048374;28;20396;-20
2022/02/12 07:55:18;;;;;;;49.58;30.02;;;;;;;6.04;67.62;101160.63;5048507;28;20025;-20
2022/02/12 07:57:44;;;;;;;38.72;24.58;;;;;;;6.12;65.62;101121.94;5048380;28;20033;-21
2022/02/12 08:00:10;;;;;;;48.97;30.02;;;;;;;6.65;65.22;101155.06;5048480;28;20127;-21
2022/02/12 08:02:35;;;;;;;40.53;25.00;;;;;;;6.87;64.49;101163.38;5063081;28;20091;-21
2022/02/12 08:05:01;;;;;;;44.95;25.83;;;;;;;6.84;64.18;101164.50;5048415;28;20424;-20
2022/02/12 08:07:29;;;;;;;39.53;25.05;;;;;;;6.88;64.38;101152.56;5047524;28;20029;-21
2022/02/12 08:09:55;;;;;;;36.78;23.58;;;;;;;7.26;63.62;101165.28;5048160;28;20040;-21
2022/02/12 08:12:20;;;;;;;38.45;25.77;;;;;;;7.55;63.61;101167.34;5047972;28;20025;-21
2022/02/12 08:14:55;;;;;;;34.50;22.40;;;;;;;7.90;61.58;101163.34;5047772;28;20416;-21
2022/02/12 08:17:23;;;;;;;31.65;21.20;;;;;;;7.49;60.96;101163.53;5048274;28;20033;-21
2022/02/12 08:19:49;;;;;;;34.45;20.85;;;;;;;7.65;61.36;101170.59;5048044;28;20579;-21
2022/02/12 08:22:15;;;;;;;28.25;19.70;;;;;;;7.61;60.98;101162.16;5048023;28;20016;-20
2022/02/12 08:24:41;;;;;;;28.70;19.45;;;;;;;7.89;59.13;101166.19;5047676;28;20024;-20
2022/02/12 08:27:06;;;;;;;32.10;20.70;;;;;;;7.98;60.43;101168.63;5047740;28;20051;-21
2022/02/12 08:29:32;;;;;;;32.75;19.90;;;;;;;8.08;58.71;101156.94;5047783;28;20110;-21
2022/02/12 08:31:58;;;;;;;31.98;20.40;;;;;;;7.64;59.63;101137.94;5047813;28;20523;-21
2022/02/12 08:34:24;;;;;;;31.23;20.40;;;;;;;7.83;60.85;101139.31;5047900;28;20104;-20
2022/02/12 08:36:50;;;;;;;31.75;20.40;;;;;;;8.32;60.28;101158.63;5047811;28;20135;-20
2022/02/12 08:39:15;;;;;;;31.08;20.50;;;;;;;8.79;59.01;101165.59;5047683;28;20115;-20
2022/02/12 08:41:41;;;;;;;33.33;21.92;;;;;;;9.09;58.12;101150.47;5047522;28;20064;-21
2022/02/12 08:44:06;;;;;;;36.13;22.25;;;;;;;9.34;57.96;101136.94;5029665;28;20038;-21
2022/02/12 08:46:32;;;;;;;34.30;20.95;;;;;;;9.56;57.65;101156.44;5047148;28;20037;-21
2022/02/12 08:48:58;;;;;;;27.67;15.77;;;;;;;9.37;57.31;101169.31;5062691;28;20028;-20
2022/02/12 08:51:24;;;;;;;29.10;18.95;;;;;;;9.55;57.95;101166.28;5047432;28;20696;-20
2022/02/12 08:53:50;;;;;;;29.55;18.08;;;;;;;9.67;56.95;101169.31;5047262;28;20047;-20
2022/02/12 08:56:15;;;;;;;26.60;17.10;;;;;;;9.84;57.10;101160.06;5062888;28;20029;-20
2022/02/12 08:58:41;;;;;;;27.50;16.88;;;;;;;10.13;56.67;101162.84;5046690;28;20743;-21
2022/02/12 09:01:07;;;;;;;24.27;16.60;;;;;;;10.62;55.64;101173.63;5047501;28;20044;-21
2022/02/12 09:03:32;;;;;;;26.73;16.67;;;;;;;11.04;54.89;101155.06;5047269;28;20741;-21
2022/02/12 09:05:58;;;;;;;20.30;13.70;;;;;;;11.31;52.99;101168.56;5047405;28;20029;-20
2022/02/12 09:08:24;;;;;;;24.40;15.02;;;;;;;11.47;52.96;101154.91;5029433;28;20111;-20
2022/02/12 09:10:50;;;;;;;20.17;12.75;;;;;;;11.73;53.45;101167.56;5047302;28;20044;-20
2022/02/12 09:13:15;;;;;;;20.30;13.05;;;;;;;12.01;51.83;101167.50;5047120;28;20028;-20
2022/02/12 09:15:41;;;;;;;16.67;10.90;;;;;;;12.24;50.43;101171.66;5047113;28;20033;-20
2022/02/12 09:18:06;;;;;;;18.40;10.00;;;;;;;12.33;50.06;101159.72;5048595;28;20044;-20
2022/02/12 09:20:32;;;;;;;17.33;10.85;;;;;;;12.32;49.63;101147.41;5051218;28;20033;-20
2022/02/12 09:22:57;;;;;;;15.10;9.90;;;;;;;12.22;48.88;101179.06;5051292;28;20021;-20
2022/02/12 09:25:23;;;;;;;12.35;9.07;;;;;;;12.33;48.65;101170.44;5051149;28;20554;-20
2022/02/12 09:27:48;;;;;;;15.32;9.77;;;;;;;12.45;49.23;101163.44;5051364;28;20037;-20
2022/02/12 09:30:14;;;;;;;16.60;10.55;;;;;;;12.64;48.13;101155.63;5050648;28;20033;-21
2022/02/12 09:32:39;;;;;;;17.13;11.43;;;;;;;12.68;47.95;101162.22;5050708;28;20086;-20
2022/02/12 09:35:05;;;;;;;15.38;9.65;;;;;;;12.83;47.21;101154.81;5051194;28;20087;-21
2022/02/12 09:37:30;;;;;;;12.70;9.10;;;;;;;12.89;47.62;101155.81;5050964;28;20021;-20
2022/02/12 09:39:56;;;;;;;15.40;8.98;;;;;;;12.95;46.38;101159.53;5051037;28;20021;-20
2022/02/12 09:42:21;;;;;;;17.08;10.32;;;;;;;12.91;46.81;101156.44;5050840;28;20083;-21
2022/02/12 09:44:47;;;;;;;17.52;10.77;;;;;;;13.27;47.00;101158.66;5050565;28;20040;-20
2022/02/12 09:47:24;;;;;;;16.85;9.32;;;;;;;13.70;46.31;101159.19;5051042;28;20467;-20
2022/02/12 09:49:50;;;;;;;12.32;8.23;;;;;;;13.62;45.24;101163.72;5051010;28;20852;-20
2022/02/12 09:52:18;;;;;;;17.27;10.25;;;;;;;13.66;44.67;101148.88;5049294;28;20033;-20
2022/02/12 09:54:44;;;;;;;15.20;9.52;;;;;;;13.50;44.63;101141.28;5050451;28;20021;-20
2022/02/12 09:57:10;;;;;;;16.33;9.82;;;;;;;13.57;45.69;101144.78;5050411;28;20037;-20
2022/02/12 09:59:35;;;;;;;16.17;10.77;;;;;;;13.45;45.78;101130.41;5050563;28;20079;-20
2022/02/12 10:02:01;;;;;;;14.45;11.02;;;;;;;13.86;46.02;101137.25;5050634;28;20067;-20
2022/02/12 10:04:28;;;;;;;15.30;10.90;;;;;;;14.30;44.75;101132.81;5050605;28;20762;-19
2022/02/12 10:06:54;;;;;;;15.85;10.95;;;;;;;14.38;43.95;101137.94;5050622;28;20032;-20
2022/02/12 10:09:19;;;;;;;15.15;10.57;;;;;;;14.50;43.30;101146.09;5065681;28;20492;-20
2022/02/12 10:11:47;;;;;;;19.83;11.70;;;;;;;14.41;44.34;101140.19;5050272;28;20087;-21
2022/02/12 10:14:17;;;;;;;18.00;13.07;;;;;;;14.31;43.88;101147.91;5032495;28;20035;-20
2022/02/12 10:17:00;;;;;;;22.13;13.60;;;;;;;14.35;44.78;101146.44;5050303;28;20344;-21
2022/02/12 10:19:36;;;;;;;18.95;11.60;;;;;;;14.61;44.48;101141.94;5050176;28;20040;-20
2022/02/12 10:22:15;;;;;;;17.77;12.13;;;;;;;14.72;43.12;101140.41;5032097;28;20033;-21
2022/02/12 10:24:54;;;;;;;16.15;12.00;;;;;;;14.80;43.65;101129.38;5050071;28;20074;-20
2022/02/12 10:27:21;;;;;;;19.27;14.10;;;;;;;14.83;43.66;101135.13;5050053;28;20447;-20
2022/02/12 10:29:47;;;;;;;18.77;11.47;;;;;;;14.96;43.46;101136.88;5064543;28;20035;-20
2022/02/12 10:32:19;;;;;;;17.95;11.63;;;;;;;15.07;43.46;101132.63;5049972;28;20362;-20
2022/02/12 10:34:46;;;;;;;17.25;10.75;;;;;;;15.65;42.76;101137.53;5031587;28;20131;-21
2022/02/12 10:37:12;;;;;;;15.57;10.88;;;;;;;15.91;41.20;101140.94;5065557;28;20036;-20
2022/02/12 10:39:48;;;;;;;17.90;10.82;;;;;;;15.60;40.59;101131.19;5049814;28;20032;-21
2022/02/12 10:42:13;;;;;;;15.88;11.55;;;;;;;15.72;41.50;101140.19;5050003;28;20033;-20
2022/02/12 10:44:39;;;;;;;15.95;11.13;;;;;;;15.39;41.92;101138.69;5049453;28;20063;-20
2022/02/12 10:47:05;;;;;;;18.50;12.07;;;;;;;15.52;41.51;101140.38;5049679;28;20037;-20
2022/02/12 10:49:30;;;;;;;16.25;10.50;;;;;;;15.71;40.44;101133.09;5049894;28;20732;-20
2022/02/12 10:51:56;;;;;;;14.90;9.85;;;;;;;15.72;39.79;101136.63;5049922;28;20033;-20
2022/02/12 10:54:21;;;;;;;18.13;11.90;;;;;;;15.42;41.35;101118.59;5049642;28;20032;-21
2022/02/12 10:56:48;;;;;;;15.82;11.00;;;;;;;15.58;40.87;101125.22;5049215;28;20033;-20
2022/02/12 10:59:18;;;;;;;17.20;11.80;;;;;;;15.79;40.81;101115.88;5049549;28;20061;-20
2022/02/12 11:01:44;;;;;;;16.90;11.75;;;;;;;16.27;40.86;101121.19;5049135;28;20116;-21
2022/02/12 11:04:09;;;;;;;17.05;12.00;;;;;;;16.14;39.70;101134.00;5049809;28;20033;-21
2022/02/12 11:06:39;;;;;;;16.30;10.45;;;;;;;16.30;39.29;101122.59;5064565;28;20555;-21
2022/02/12 11:09:04;;;;;;;15.27;9.75;;;;;;;16.40;38.45;101124.72;5049410;28;20405;-20
2022/02/12 11:11:30;;;;;;;14.20;8.52;;;;;;;15.98;37.72;101109.41;5049316;28;20044;-20
2022/02/12 11:13:58;;;;;;;14.43;9.85;;;;;;;16.35;38.45;101122.72;5049183;28;20452;-20